createdAt,value
2018-10-03T00:00:40.068Z,22.03
2018-10-03T00:03:09.254Z,17.57
2018-10-03T00:05:38.439Z,22.77
2018-10-03T00:08:07.630Z,25.10
2018-10-03T00:10:36.759Z,16.87
2018-10-03T00:13:05.937Z,19.67
2018-10-03T00:15:35.110Z,24.73
2018-10-03T00:18:04.681Z,20.60
2018-10-03T00:20:33.856Z,18.33
2018-10-03T00:23:03.018Z,22.17
2018-10-03T00:25:32.179Z,20.32
2018-10-03T00:28:01.331Z,19.67
2018-10-03T00:30:30.486Z,19.90
2018-10-03T00:32:59.620Z,25.33
2018-10-03T00:35:28.764Z,26.33
2018-10-03T00:37:57.928Z,19.97
2018-10-03T00:40:27.100Z,20.67
2018-10-03T00:42:56.291Z,20.60
2018-10-03T00:45:25.483Z,17.83
2018-10-03T00:47:54.600Z,18.77
2018-10-03T00:50:23.721Z,20.73
2018-10-03T00:52:52.894Z,20.62
2018-10-03T00:55:22.057Z,14.00
2018-10-03T00:57:51.248Z,13.90
2018-10-03T01:00:20.458Z,22.70
2018-10-03T01:02:49.640Z,20.90
2018-10-03T01:05:19.133Z,15.47
2018-10-03T01:07:48.445Z,24.25
2018-10-03T01:10:17.595Z,19.12
2018-10-03T01:12:46.745Z,17.50
2018-10-03T01:15:15.905Z,20.87
2018-10-03T01:17:45.017Z,19.27
2018-10-03T01:20:14.202Z,20.87
2018-10-03T01:22:43.347Z,19.13
2018-10-03T01:25:12.534Z,23.42
2018-10-03T01:27:41.693Z,22.50
2018-10-03T01:30:11.590Z,22.30
2018-10-03T01:32:40.719Z,18.87
2018-10-03T01:35:09.974Z,19.03
2018-10-03T01:37:39.171Z,21.25
2018-10-03T01:40:08.278Z,17.03
2018-10-03T01:42:37.396Z,17.15
2018-10-03T01:45:06.629Z,22.60
2018-10-03T01:47:35.808Z,26.43
2018-10-03T01:50:05.318Z,15.90
2018-10-03T01:52:34.540Z,24.35
2018-10-03T01:55:03.769Z,16.45
2018-10-03T01:57:32.888Z,19.00
2018-10-03T02:00:02.067Z,24.07
2018-10-03T02:02:31.209Z,25.87
2018-10-03T02:05:00.337Z,19.17
2018-10-03T02:07:29.520Z,27.97
2018-10-03T02:09:58.768Z,14.98
2018-10-03T02:12:27.933Z,21.17
2018-10-03T02:14:57.663Z,25.23
2018-10-03T02:17:26.852Z,24.57
2018-10-03T02:19:56.032Z,23.63
2018-10-03T02:22:25.274Z,19.87
2018-10-03T02:24:54.424Z,24.10
2018-10-03T02:27:23.607Z,26.13
2018-10-03T02:29:52.761Z,16.60
2018-10-03T02:32:21.943Z,18.17
2018-10-03T02:34:51.221Z,20.33
2018-10-03T02:37:20.364Z,19.47
2018-10-03T02:39:49.733Z,26.23
2018-10-03T02:42:18.869Z,19.15
2018-10-03T02:44:48.213Z,20.37
2018-10-03T02:47:17.425Z,25.83
2018-10-03T02:49:46.605Z,18.60
2018-10-03T02:52:15.847Z,17.85
2018-10-03T02:54:45.024Z,19.77
2018-10-03T02:57:14.201Z,19.45
2018-10-03T02:59:43.413Z,20.70
2018-10-03T03:02:12.641Z,22.97
2018-10-03T03:04:41.853Z,25.07
2018-10-03T03:07:11.068Z,25.20
2018-10-03T03:09:40.363Z,19.95
2018-10-03T03:12:09.526Z,18.77
2018-10-03T03:14:38.747Z,26.03
2018-10-03T03:17:07.916Z,17.23
2018-10-03T03:19:37.085Z,25.17
2018-10-03T03:22:06.331Z,16.17
2018-10-03T03:24:35.482Z,21.93
2018-10-03T03:27:04.679Z,23.80
2018-10-03T03:29:33.907Z,23.50
2018-10-03T03:32:03.139Z,25.43
2018-10-03T03:34:32.434Z,13.85
2018-10-03T03:37:01.675Z,19.53
2018-10-03T03:39:30.954Z,20.60
2018-10-03T03:42:00.117Z,26.03
2018-10-03T03:44:29.348Z,21.67
2018-10-03T03:46:58.528Z,21.17
2018-10-03T03:49:27.763Z,19.85
2018-10-03T03:51:57.148Z,20.07
2018-10-03T03:54:26.334Z,20.47
2018-10-03T03:56:55.546Z,20.52
2018-10-03T03:59:24.792Z,23.00
2018-10-03T04:01:54.029Z,20.53
2018-10-03T04:04:23.320Z,24.07
2018-10-03T04:06:52.514Z,21.97
2018-10-03T04:09:21.797Z,23.37
2018-10-03T04:11:51.404Z,19.03
2018-10-03T04:14:20.607Z,16.30
2018-10-03T04:16:49.826Z,20.13
2018-10-03T04:19:19.076Z,23.95
2018-10-03T04:21:48.319Z,17.32
2018-10-03T04:24:17.466Z,22.30
2018-10-03T04:26:46.763Z,24.55
2018-10-03T04:29:15.951Z,19.97
2018-10-03T04:31:45.085Z,19.47
2018-10-03T04:34:14.318Z,20.40
2018-10-03T04:36:43.462Z,24.33
2018-10-03T04:39:12.626Z,25.90
2018-10-03T04:41:41.810Z,20.57
2018-10-03T04:44:11.100Z,32.93
2018-10-03T04:46:40.257Z,20.62
2018-10-03T04:49:09.433Z,24.00
2018-10-03T04:51:38.497Z,16.70
2018-10-03T04:54:07.722Z,20.17
2018-10-03T04:56:36.911Z,25.50
2018-10-03T04:59:06.240Z,35.20
2018-10-03T05:01:35.434Z,25.20
2018-10-03T05:04:04.578Z,23.00
2018-10-03T05:06:33.714Z,24.03
2018-10-03T05:09:03.147Z,27.87
2018-10-03T05:11:32.316Z,24.63
2018-10-03T05:14:01.476Z,27.27
2018-10-03T05:16:30.709Z,21.68
2018-10-03T05:18:59.896Z,18.65
2018-10-03T05:21:29.080Z,20.10
2018-10-03T05:23:58.674Z,17.03
2018-10-03T05:26:27.906Z,20.97
2018-10-03T05:28:57.166Z,22.80
2018-10-03T05:31:26.309Z,20.87
2018-10-03T05:33:55.773Z,23.47
2018-10-03T05:36:25.093Z,23.38
2018-10-03T05:38:54.258Z,21.87
2018-10-03T05:41:23.628Z,19.73
2018-10-03T05:43:52.908Z,20.13
2018-10-03T05:46:22.176Z,17.10
2018-10-03T05:48:51.452Z,18.93
2018-10-03T05:51:20.635Z,20.52
2018-10-03T05:53:49.875Z,14.87
2018-10-03T05:56:19.064Z,17.30
2018-10-03T05:58:48.305Z,17.80
2018-10-03T06:01:17.496Z,17.87
2018-10-03T06:03:46.707Z,19.10
2018-10-03T06:06:15.877Z,24.53
2018-10-03T06:08:45.111Z,19.57
2018-10-03T06:11:14.311Z,25.30
2018-10-03T06:13:43.513Z,27.48
2018-10-03T06:16:12.687Z,18.85
2018-10-03T06:18:41.889Z,17.83
2018-10-03T06:21:11.212Z,14.45
2018-10-03T06:23:40.471Z,22.93
2018-10-03T06:26:09.723Z,22.77
2018-10-03T06:28:39.918Z,17.73
2018-10-03T06:31:09.480Z,23.53
2018-10-03T06:33:38.722Z,25.30
2018-10-03T06:36:08.211Z,20.03
2018-10-03T06:38:37.346Z,19.53
2018-10-03T06:41:06.578Z,22.40
2018-10-03T06:43:35.729Z,20.30
2018-10-03T06:46:05.010Z,21.43
2018-10-03T06:48:34.243Z,15.73
2018-10-03T06:51:03.557Z,23.12
2018-10-03T06:53:32.719Z,30.30
2018-10-03T06:56:01.971Z,25.03
2018-10-03T06:58:31.295Z,19.47
2018-10-03T07:01:00.512Z,26.20
2018-10-03T07:03:29.702Z,18.87
2018-10-03T07:05:58.885Z,18.67
2018-10-03T07:08:28.126Z,23.50
2018-10-03T07:10:57.352Z,21.03
2018-10-03T07:13:26.553Z,35.13
2018-10-03T07:15:55.840Z,31.10
2018-10-03T07:18:25.134Z,22.80
2018-10-03T07:20:54.300Z,22.23
2018-10-03T07:23:23.624Z,29.20
2018-10-03T07:25:52.844Z,21.83
2018-10-03T07:28:22.189Z,25.77
2018-10-03T07:30:51.653Z,33.47
2018-10-03T07:33:20.901Z,24.30
2018-10-03T07:35:50.303Z,25.30
2018-10-03T07:38:19.538Z,21.97
2018-10-03T07:40:49.826Z,17.67
2018-10-03T07:43:19.100Z,25.90
2018-10-03T07:45:48.380Z,18.90
2018-10-03T07:48:17.600Z,20.17
2018-10-03T07:50:46.853Z,26.37
2018-10-03T07:53:16.072Z,26.70
2018-10-03T07:55:45.273Z,25.60
2018-10-03T07:58:14.572Z,23.52
2018-10-03T08:00:43.746Z,21.53
2018-10-03T08:03:14.312Z,17.10
2018-10-03T08:05:47.256Z,17.27
2018-10-03T08:08:16.472Z,21.37
2018-10-03T08:10:45.708Z,22.27
2018-10-03T08:13:14.833Z,18.23
2018-10-03T08:15:44.229Z,17.27
2018-10-03T08:18:13.344Z,18.67
2018-10-03T08:20:42.572Z,16.63
2018-10-03T08:23:11.745Z,16.05
2018-10-03T08:25:40.934Z,17.20
2018-10-03T08:28:10.592Z,18.37
2018-10-03T08:30:39.874Z,25.30
2018-10-03T08:33:09.248Z,20.27
2018-10-03T08:35:38.597Z,17.80
2018-10-03T08:38:07.797Z,15.32
2018-10-03T08:40:37.084Z,15.73
2018-10-03T08:43:07.578Z,14.55
2018-10-03T08:45:36.831Z,13.50
2018-10-03T08:48:05.996Z,17.10
2018-10-03T08:50:35.227Z,18.92
2018-10-03T08:53:04.456Z,12.03
2018-10-03T08:55:33.600Z,18.10
2018-10-03T08:58:03.811Z,18.00
2018-10-03T09:00:33.072Z,19.50
2018-10-03T09:03:02.214Z,16.33
2018-10-03T09:05:31.399Z,14.25
2018-10-03T09:08:11.826Z,10.90
2018-10-03T09:10:42.611Z,10.10
2018-10-03T09:13:12.315Z,17.60
2018-10-03T09:15:41.464Z,13.65
2018-10-03T09:18:10.751Z,10.65
2018-10-03T09:20:39.943Z,11.97
2018-10-03T09:23:09.141Z,12.93
2018-10-03T09:25:38.277Z,13.37
2018-10-03T09:28:07.650Z,16.87
2018-10-03T09:30:36.886Z,15.47
2018-10-03T09:33:06.040Z,14.85
2018-10-03T09:35:35.216Z,14.17
2018-10-03T09:38:04.400Z,15.67
2018-10-03T09:40:33.599Z,6.73
2018-10-03T09:43:02.717Z,13.53
2018-10-03T09:45:31.884Z,15.47
2018-10-03T09:48:01.070Z,12.57
2018-10-03T09:50:30.312Z,14.07
2018-10-03T09:52:59.620Z,14.07
2018-10-03T09:55:28.755Z,13.10
2018-10-03T09:57:57.949Z,11.43
2018-10-03T10:00:32.289Z,16.63
2018-10-03T10:03:01.398Z,15.67
2018-10-03T10:05:30.600Z,13.18
2018-10-03T10:07:59.705Z,8.57
2018-10-03T10:10:28.914Z,11.17
2018-10-03T10:12:58.047Z,9.03
2018-10-03T10:15:27.189Z,11.30
2018-10-03T10:17:56.365Z,8.77
2018-10-03T10:20:25.693Z,11.50
2018-10-03T10:22:55.579Z,8.73
2018-10-03T10:25:24.812Z,11.60
2018-10-03T10:27:53.916Z,11.30
2018-10-03T10:30:23.080Z,10.27
2018-10-03T10:32:52.272Z,9.80
2018-10-03T10:35:21.401Z,9.20
2018-10-03T10:37:50.742Z,7.90
2018-10-03T10:40:19.943Z,9.67
2018-10-03T10:42:49.235Z,13.10
2018-10-03T10:45:18.379Z,10.27
2018-10-03T10:47:47.550Z,12.77
2018-10-03T10:50:16.805Z,13.73
2018-10-03T10:52:45.892Z,11.28
2018-10-03T10:55:15.094Z,8.48
2018-10-03T10:57:44.565Z,6.87
2018-10-03T11:00:13.776Z,5.87
2018-10-03T11:02:42.893Z,4.53
2018-10-03T11:05:12.138Z,9.30
2018-10-03T11:07:41.319Z,8.33
2018-10-03T11:10:11.043Z,4.15
2018-10-03T11:12:40.342Z,5.97
2018-10-03T11:15:09.429Z,3.37
2018-10-03T11:17:38.675Z,4.25
2018-10-03T11:20:08.008Z,6.90
2018-10-03T11:22:37.452Z,5.13
2018-10-03T11:25:06.742Z,4.50
2018-10-03T11:27:35.962Z,6.07
2018-10-03T11:30:05.608Z,8.07
2018-10-03T11:32:34.792Z,7.20
2018-10-03T11:35:04.066Z,6.63
2018-10-03T11:37:33.264Z,5.70
2018-10-03T11:40:02.605Z,5.97
2018-10-03T11:42:31.733Z,10.03
2018-10-03T11:45:01.133Z,8.03
2018-10-03T11:47:30.287Z,8.93
2018-10-03T11:49:59.477Z,10.17
2018-10-03T11:52:28.726Z,8.77
2018-10-03T11:54:58.863Z,9.83
2018-10-03T11:57:28.072Z,7.63
2018-10-03T11:59:57.408Z,9.10
2018-10-03T12:02:27.613Z,9.30
2018-10-03T12:04:56.852Z,10.03
2018-10-03T12:07:26.059Z,5.30
2018-10-03T12:09:55.279Z,18.83
2018-10-03T12:12:24.522Z,6.13
2018-10-03T12:14:53.732Z,6.05
2018-10-03T12:17:22.947Z,4.47
2018-10-03T12:19:52.100Z,6.90
2018-10-03T12:22:21.233Z,9.63
2018-10-03T12:24:50.547Z,8.58
2018-10-03T12:27:19.721Z,6.92
2018-10-03T12:29:48.866Z,10.45
2018-10-03T12:32:18.636Z,7.27
2018-10-03T12:34:47.857Z,9.10
2018-10-03T12:37:17.082Z,6.77
2018-10-03T12:39:46.260Z,10.23
2018-10-03T12:42:15.492Z,12.27
2018-10-03T12:44:44.653Z,6.28
2018-10-03T12:47:13.891Z,6.63
2018-10-03T12:49:43.094Z,10.70
2018-10-03T12:52:12.249Z,6.87
2018-10-03T12:54:41.532Z,5.92
2018-10-03T12:57:10.639Z,9.08
2018-10-03T12:59:39.863Z,10.27
2018-10-03T13:02:09.102Z,9.90
2018-10-03T13:04:38.527Z,8.13
2018-10-03T13:07:07.765Z,7.27
2018-10-03T13:09:37.120Z,10.37
2018-10-03T13:12:06.531Z,6.77
2018-10-03T13:14:35.753Z,5.87
2018-10-03T13:17:05.027Z,4.77
2018-10-03T13:19:35.229Z,13.27
2018-10-03T13:22:04.382Z,8.03
2018-10-03T13:24:33.627Z,5.70
2018-10-03T13:27:02.692Z,8.43
2018-10-03T13:29:31.819Z,4.63
2018-10-03T13:32:01.088Z,7.53
2018-10-03T13:34:30.167Z,5.57
2018-10-03T13:36:59.276Z,4.57
2018-10-03T13:39:28.523Z,3.93
2018-10-03T13:41:57.616Z,5.03
2018-10-03T13:44:26.824Z,7.00
2018-10-03T13:46:56.663Z,6.85
2018-10-03T13:49:25.759Z,6.37
2018-10-03T13:51:55.031Z,4.67
2018-10-03T13:54:24.129Z,6.00
2018-10-03T13:56:53.303Z,5.90
2018-10-03T13:59:22.439Z,7.10
2018-10-03T14:01:52.690Z,5.10
2018-10-03T14:04:21.909Z,7.67
2018-10-03T14:06:51.067Z,8.57
2018-10-03T14:09:20.291Z,8.13
2018-10-03T14:11:49.520Z,6.90
2018-10-03T14:14:18.795Z,5.77
2018-10-03T14:16:47.976Z,7.60
2018-10-03T14:19:17.159Z,8.73
2018-10-03T16:09:20.798Z,9.63
2018-10-03T16:11:50.031Z,12.67
2018-10-03T16:14:19.339Z,11.00
2018-10-03T16:16:48.616Z,12.50
2018-10-03T16:19:17.883Z,12.37
2018-10-03T16:21:47.087Z,12.60
2018-10-03T16:24:16.260Z,8.73
2018-10-03T16:26:45.494Z,9.27
2018-10-03T16:29:15.691Z,9.77
2018-10-03T16:31:45.604Z,7.45
2018-10-03T16:34:14.789Z,8.67
2018-10-03T16:36:45.015Z,7.80
2018-10-03T16:39:14.202Z,9.50
2018-10-03T16:41:43.302Z,9.23
2018-10-03T16:44:12.481Z,10.58
2018-10-03T16:46:42.244Z,7.65
2018-10-03T16:49:11.462Z,7.00
2018-10-03T16:51:40.700Z,6.77
2018-10-03T16:54:10.131Z,5.97
2018-10-03T16:56:39.380Z,5.77
2018-10-03T16:59:08.684Z,6.33
2018-10-03T17:01:38.144Z,7.80
2018-10-03T17:04:07.337Z,10.53
2018-10-03T17:06:36.803Z,5.60
2018-10-03T17:09:06.948Z,5.13
2018-10-03T17:11:36.707Z,4.27
2018-10-03T17:14:24.383Z,7.87
2018-10-03T17:16:54.508Z,4.62
2018-10-03T17:19:23.693Z,5.67
2018-10-03T17:21:54.559Z,4.42
2018-10-03T17:24:24.912Z,8.70
2018-10-03T17:26:54.019Z,10.80
2018-10-03T17:29:23.205Z,11.90
2018-10-03T17:31:52.351Z,8.97
2018-10-03T17:34:21.628Z,5.13
2018-10-03T17:36:52.172Z,9.70
2018-10-03T17:39:22.210Z,6.13
2018-10-03T17:41:51.352Z,9.90
2018-10-03T17:44:22.216Z,6.93
2018-10-03T17:46:52.771Z,9.13
2018-10-03T17:49:22.000Z,8.10
2018-10-03T17:51:51.203Z,6.65
2018-10-03T17:54:20.337Z,6.30
2018-10-03T17:56:50.641Z,4.77
2018-10-03T17:59:19.871Z,9.77
2018-10-03T18:01:59.149Z,7.33
2018-10-03T18:04:28.326Z,8.37
2018-10-03T18:07:02.276Z,8.28
2018-10-03T18:09:37.869Z,6.40
2018-10-03T18:12:13.962Z,6.42
2018-10-03T18:14:43.709Z,9.47
2018-10-03T18:17:13.136Z,5.12
2018-10-03T18:19:42.321Z,9.53
2018-10-03T18:22:11.615Z,9.40
2018-10-03T18:24:40.916Z,6.43
2018-10-03T18:27:10.089Z,8.63
2018-10-03T18:29:40.280Z,9.33
2018-10-03T18:32:09.475Z,6.73
2018-10-03T18:34:38.644Z,7.47
2018-10-03T18:37:07.874Z,6.27
2018-10-03T18:39:37.139Z,8.87
2018-10-03T18:42:06.524Z,7.87
2018-10-03T18:44:35.746Z,13.60
2018-10-03T18:47:04.909Z,9.03
2018-10-03T18:49:34.130Z,8.77
2018-10-03T18:52:03.438Z,10.00
2018-10-03T18:54:32.523Z,7.03
2018-10-03T18:57:01.834Z,12.83
2018-10-03T18:59:31.072Z,9.13
2018-10-03T19:02:00.345Z,9.50
2018-10-03T19:04:29.489Z,15.13
2018-10-03T19:06:59.885Z,11.97
2018-10-03T19:09:29.028Z,12.77
2018-10-03T19:11:58.282Z,9.87
2018-10-03T19:14:27.449Z,8.85
2018-10-03T19:16:56.652Z,8.90
2018-10-03T19:19:25.844Z,8.83
2018-10-03T19:21:55.122Z,10.93
2018-10-03T19:24:25.424Z,12.33
2018-10-03T19:26:54.580Z,9.43
2018-10-03T19:29:23.848Z,11.30
2018-10-03T19:31:53.112Z,6.53
2018-10-03T19:34:22.330Z,13.77
2018-10-03T19:36:51.605Z,11.90
2018-10-03T19:39:20.870Z,13.93
2018-10-03T19:41:50.180Z,11.33
2018-10-03T19:44:19.402Z,12.33
2018-10-03T19:46:48.601Z,12.80
2018-10-03T19:49:17.807Z,12.93
2018-10-03T19:51:47.096Z,9.03
2018-10-03T19:54:16.300Z,11.27
2018-10-03T19:56:45.473Z,8.87
2018-10-03T19:59:14.686Z,11.77
2018-10-03T20:01:43.920Z,10.17
2018-10-03T20:04:13.188Z,12.17
2018-10-03T20:06:42.368Z,9.37
2018-10-03T20:09:11.665Z,12.27
2018-10-03T20:11:40.776Z,9.67
2018-10-03T20:14:10.019Z,9.33
2018-10-03T20:16:39.446Z,13.27
2018-10-03T20:19:08.636Z,12.93
2018-10-03T20:21:37.836Z,12.27
2018-10-03T20:24:07.012Z,7.37
2018-10-03T20:26:36.189Z,11.17
2018-10-03T20:29:05.370Z,11.37
2018-10-03T20:31:34.568Z,12.98
2018-10-03T20:34:03.712Z,8.87
2018-10-03T20:36:32.863Z,11.70
2018-10-03T20:39:02.074Z,8.03
2018-10-03T20:41:31.362Z,12.23
2018-10-03T20:44:00.496Z,11.05
2018-10-03T20:46:29.604Z,10.30
2018-10-03T20:48:58.693Z,14.93
2018-10-03T20:51:27.776Z,10.33
2018-10-03T20:53:56.926Z,9.73
2018-10-03T20:56:26.313Z,9.63
2018-10-03T20:58:55.446Z,6.97
2018-10-03T21:01:24.581Z,10.97
2018-10-03T21:03:53.707Z,14.63
2018-10-03T21:06:22.979Z,12.70
2018-10-03T21:08:52.223Z,11.67
2018-10-03T21:11:21.381Z,10.57
2018-10-03T21:13:50.517Z,10.33
2018-10-03T21:16:19.685Z,9.05
2018-10-03T21:18:48.757Z,9.50
2018-10-03T21:21:17.919Z,11.37
2018-10-03T21:23:47.174Z,13.73
2018-10-03T21:26:16.286Z,15.13
2018-10-03T21:28:45.460Z,11.48
2018-10-03T21:31:14.615Z,13.83
2018-10-03T21:33:43.775Z,14.63
2018-10-03T21:36:12.898Z,13.17
2018-10-03T21:38:42.029Z,16.80
2018-10-03T21:41:11.211Z,13.93
2018-10-03T21:43:40.448Z,11.13
2018-10-03T21:46:09.544Z,12.27
2018-10-03T21:48:38.744Z,10.40
2018-10-03T21:51:07.893Z,9.47
2018-10-03T21:53:37.128Z,17.80
2018-10-03T21:56:06.330Z,11.97
2018-10-03T21:58:35.538Z,18.00
2018-10-03T22:01:04.709Z,19.63
2018-10-03T22:03:33.901Z,14.63
2018-10-03T22:06:03.021Z,14.70
2018-10-03T22:08:32.159Z,11.67
2018-10-03T22:11:01.311Z,10.83
2018-10-03T22:13:30.544Z,8.95
2018-10-03T22:15:59.695Z,15.67
2018-10-03T22:18:28.872Z,13.93
2018-10-03T22:20:58.114Z,13.60
2018-10-03T22:23:28.327Z,14.17
2018-10-03T22:25:57.446Z,20.03
2018-10-03T22:28:26.555Z,12.20
2018-10-03T22:30:55.752Z,15.47
2018-10-03T22:33:24.873Z,17.37
2018-10-03T22:35:54.064Z,12.70
2018-10-03T22:38:23.274Z,9.47
2018-10-03T22:40:52.442Z,10.08
2018-10-03T22:43:21.580Z,15.88
2018-10-03T22:45:52.068Z,9.20
2018-10-03T22:48:21.175Z,8.87
2018-10-03T22:50:50.340Z,11.67
2018-10-03T22:53:19.445Z,12.83
2018-10-03T22:55:48.621Z,12.87
2018-10-03T22:58:17.755Z,16.83
2018-10-03T23:00:46.900Z,12.00
2018-10-03T23:03:16.003Z,9.67
2018-10-03T23:05:45.127Z,11.20
2018-10-03T23:08:14.254Z,14.63
2018-10-03T23:10:43.433Z,12.13
2018-10-03T23:13:12.585Z,13.43
2018-10-03T23:15:41.709Z,9.03
2018-10-03T23:18:10.849Z,17.13
2018-10-03T23:20:40.083Z,11.83
2018-10-03T23:23:09.303Z,10.97
2018-10-03T23:25:38.394Z,9.37
2018-10-03T23:28:07.568Z,14.60
2018-10-03T23:30:36.777Z,14.30
2018-10-03T23:33:05.900Z,10.80
2018-10-03T23:35:35.048Z,10.27
2018-10-03T23:38:04.248Z,13.37
2018-10-03T23:40:33.420Z,11.87
2018-10-03T23:43:02.661Z,9.63
2018-10-03T23:45:31.763Z,11.17
2018-10-03T23:48:01.001Z,17.02
2018-10-03T23:50:30.559Z,15.63
2018-10-03T23:52:59.718Z,8.70
2018-10-03T23:55:28.890Z,12.63
2018-10-03T23:57:58.028Z,11.22
